Plato — 8PRX — position and weather

sailwx.info

Track history (hours):
 
Tides and Currents Weather Stations Pressure Air Temp Water Temp Dewpoint Dewpoint Depression Visibility Wind Speed Wind Dir Waves Ship Positions

Plato

Last reported at 2014-Aug-23 03:33 UTC. Time now 2014-Aug-23 05:35 UTC.
Position N 54°29' E 011°38'.

Length 88 m; draft 5.1 m.

Type: Ship. MMSI: 314189000.

Date/timePositionNaut miles runAvg speedWind from/ knotsBaromVisibWave heightAir tempDewpointWater temp
2014-Aug-23 03:33N 54°29' E 011°38'7 6.4
2014-Aug-23 02:28N 54°26' E 011°50'8 7.5
2014-Aug-23 01:27N 54°27' E 012°03'6 6.4
2014-Aug-23 00:33N 54°30' E 012°11'8 7.8
2014-Aug-22 23:33N 54°37' E 012°15'8 7.5
2014-Aug-22 22:28N 54°42' E 012°27'9 7.4
2014-Aug-22 21:19N 54°47' E 012°39'69 7.6
2014-Aug-22 12:19N 55°20' E 014°24'14 7.7
2014-Aug-22 10:32N 55°30' E 014°41'58 8.4
2014-Aug-22 03:33N 55°58' E 016°11'8 8.0
2014-Aug-22 02:33N 56°02' E 016°24'  
2014-Aug-15 18:30N 55°02' E 019°17'8 8.0
2014-Aug-15 17:33N 54°55' E 019°12'8 8.4
2014-Aug-15 16:33N 54°48' E 019°05'9 8.7
2014-Aug-15 15:33N 54°40' E 018°59'8 8.4
2014-Aug-15 14:33N 54°33' E 018°51'7 6.8
2014-Aug-15 13:32N 54°31' E 018°39'0 0.0
2014-Aug-15 12:32N 54°31' E 018°39'0 0.0
2014-Aug-15 11:31N 54°31' E 018°39'0 0.1
2014-Aug-15 10:33N 54°31' E 018°39'0 0.0
2014-Aug-15 09:33N 54°31' E 018°39'0 0.0
2014-Aug-15 08:32N 54°31' E 018°39'0 0.0
2014-Aug-15 07:32N 54°31' E 018°39'0 0.0
2014-Aug-15 06:31N 54°31' E 018°39'0 0.0
2014-Aug-15 05:33N 54°31' E 018°39'0 0.0
2014-Aug-15 04:33N 54°31' E 018°39'0 0.0
2014-Aug-15 03:32N 54°31' E 018°39'0 0.0
2014-Aug-15 02:32N 54°31' E 018°39'0 0.0
2014-Aug-15 01:31N 54°31' E 018°39'0 0.0
2014-Aug-15 00:33N 54°31' E 018°39'0 0.0
2014-Aug-14 23:33N 54°31' E 018°39'0 0.0
2014-Aug-14 22:32N 54°31' E 018°39'0 0.0
2014-Aug-14 21:31N 54°31' E 018°39'0 0.1
2014-Aug-14 20:31N 54°31' E 018°39'0 0.0
2014-Aug-14 19:33N 54°31' E 018°39'0 0.0
2014-Aug-14 18:33N 54°31' E 018°39'0 0.0
2014-Aug-14 17:32N 54°31' E 018°39'0 0.0
2014-Aug-14 16:31N 54°31' E 018°39'0 0.0
2014-Aug-14 15:31N 54°31' E 018°39'4 4.1
2014-Aug-14 14:34N 54°32' E 018°33'0 0.1
2014-Aug-14 13:32N 54°32' E 018°32'0 0.0
2014-Aug-14 12:31N 54°32' E 018°32'0 0.0
2014-Aug-14 11:28N 54°32' E 018°32'0 0.0
2014-Aug-14 10:33N 54°32' E 018°32'0 0.0
2014-Aug-14 09:32N 54°32' E 018°32'0 0.0
2014-Aug-14 08:32N 54°32' E 018°32'0 0.0
2014-Aug-14 07:31N 54°32' E 018°32'0 0.0
2014-Aug-14 06:31N 54°32' E 018°32'0 0.0
2014-Aug-14 05:33N 54°32' E 018°32'0 0.0
2014-Aug-14 04:32N 54°32' E 018°32'0 0.0
2014-Aug-14 03:32N 54°32' E 018°32'0 0.0
2014-Aug-14 02:31N 54°32' E 018°32'0 0.0
2014-Aug-14 01:31N 54°32' E 018°32'0 0.0
2014-Aug-14 00:33N 54°32' E 018°32'0 0.0
2014-Aug-13 23:32N 54°32' E 018°32'0 0.0
2014-Aug-13 22:32N 54°32' E 018°32'0 0.0
2014-Aug-13 21:31N 54°32' E 018°32'0 0.0
2014-Aug-13 20:30N 54°32' E 018°32'0 0.0
2014-Aug-13 19:33N 54°32' E 018°32'0 0.0
2014-Aug-13 18:32N 54°32' E 018°32'0 0.0
2014-Aug-13 17:32N 54°32' E 018°32'0 0.0
2014-Aug-13 16:31N 54°32' E 018°32'0 0.0
2014-Aug-13 15:33N 54°32' E 018°32'0 0.0
2014-Aug-13 14:33N 54°32' E 018°32'0 0.0
2014-Aug-13 13:32N 54°32' E 018°32'0 0.0
2014-Aug-13 12:32N 54°32' E 018°32'0 0.0
2014-Aug-13 11:31N 54°32' E 018°32'0 0.0
2014-Aug-13 10:30N 54°32' E 018°32'0 0.0
2014-Aug-13 09:33N 54°32' E 018°32'0 0.0
2014-Aug-13 08:32N 54°32' E 018°32'0 0.0
2014-Aug-13 07:33N 54°32' E 018°32'0 0.0
2014-Aug-13 06:31N 54°32' E 018°32'0 0.0
2014-Aug-13 05:32N 54°32' E 018°32'0 0.0
2014-Aug-13 04:31N 54°32' E 018°32'  
Track history (hours):
 
Tides and Currents Weather Stations Pressure Air Temp Water Temp Dewpoint Dewpoint Depression Visibility Wind Speed Wind Dir Waves Ship Positions

Plato

Last reported at 2014-Aug-23 03:33 UTC. Time now 2014-Aug-23 05:35 UTC.
Position N 54°29' E 011°38'.

Length 88 m; draft 5.1 m.

Type: Ship. MMSI: 314189000.

Date/timePositionNaut miles runAvg speedWind from/ knotsBaromVisibWave heightAir tempDewpointWater temp
2014-Aug-23 03:33N 54°29' E 011°38'7 6.4
2014-Aug-23 02:28N 54°26' E 011°50'8 7.5
2014-Aug-23 01:27N 54°27' E 012°03'6 6.4
2014-Aug-23 00:33N 54°30' E 012°11'8 7.8
2014-Aug-22 23:33N 54°37' E 012°15'8 7.5
2014-Aug-22 22:28N 54°42' E 012°27'9 7.4
2014-Aug-22 21:19N 54°47' E 012°39'69 7.6
2014-Aug-22 12:19N 55°20' E 014°24'14 7.7
2014-Aug-22 10:32N 55°30' E 014°41'58 8.4
2014-Aug-22 03:33N 55°58' E 016°11'8 8.0
2014-Aug-22 02:33N 56°02' E 016°24'  
2014-Aug-15 18:30N 55°02' E 019°17'8 8.0
2014-Aug-15 17:33N 54°55' E 019°12'8 8.4
2014-Aug-15 16:33N 54°48' E 019°05'9 8.7
2014-Aug-15 15:33N 54°40' E 018°59'8 8.4
2014-Aug-15 14:33N 54°33' E 018°51'7 6.8
2014-Aug-15 13:32N 54°31' E 018°39'0 0.0
2014-Aug-15 12:32N 54°31' E 018°39'0 0.0
2014-Aug-15 11:31N 54°31' E 018°39'0 0.1
2014-Aug-15 10:33N 54°31' E 018°39'0 0.0
2014-Aug-15 09:33N 54°31' E 018°39'0 0.0
2014-Aug-15 08:32N 54°31' E 018°39'0 0.0
2014-Aug-15 07:32N 54°31' E 018°39'0 0.0
2014-Aug-15 06:31N 54°31' E 018°39'0 0.0
2014-Aug-15 05:33N 54°31' E 018°39'0 0.0
2014-Aug-15 04:33N 54°31' E 018°39'0 0.0
2014-Aug-15 03:32N 54°31' E 018°39'0 0.0
2014-Aug-15 02:32N 54°31' E 018°39'0 0.0
2014-Aug-15 01:31N 54°31' E 018°39'0 0.0
2014-Aug-15 00:33N 54°31' E 018°39'0 0.0
2014-Aug-14 23:33N 54°31' E 018°39'0 0.0
2014-Aug-14 22:32N 54°31' E 018°39'0 0.0
2014-Aug-14 21:31N 54°31' E 018°39'0 0.1
2014-Aug-14 20:31N 54°31' E 018°39'0 0.0
2014-Aug-14 19:33N 54°31' E 018°39'0 0.0
2014-Aug-14 18:33N 54°31' E 018°39'0 0.0
2014-Aug-14 17:32N 54°31' E 018°39'0 0.0
2014-Aug-14 16:31N 54°31' E 018°39'0 0.0
2014-Aug-14 15:31N 54°31' E 018°39'4 4.1
2014-Aug-14 14:34N 54°32' E 018°33'0 0.1
2014-Aug-14 13:32N 54°32' E 018°32'0 0.0
2014-Aug-14 12:31N 54°32' E 018°32'0 0.0
2014-Aug-14 11:28N 54°32' E 018°32'0 0.0
2014-Aug-14 10:33N 54°32' E 018°32'0 0.0
2014-Aug-14 09:32N 54°32' E 018°32'0 0.0
2014-Aug-14 08:32N 54°32' E 018°32'0 0.0
2014-Aug-14 07:31N 54°32' E 018°32'0 0.0
2014-Aug-14 06:31N 54°32' E 018°32'0 0.0
2014-Aug-14 05:33N 54°32' E 018°32'0 0.0
2014-Aug-14 04:32N 54°32' E 018°32'0 0.0
2014-Aug-14 03:32N 54°32' E 018°32'0 0.0
2014-Aug-14 02:31N 54°32' E 018°32'0 0.0
2014-Aug-14 01:31N 54°32' E 018°32'0 0.0
2014-Aug-14 00:33N 54°32' E 018°32'0 0.0
2014-Aug-13 23:32N 54°32' E 018°32'0 0.0
2014-Aug-13 22:32N 54°32' E 018°32'0 0.0
2014-Aug-13 21:31N 54°32' E 018°32'0 0.0
2014-Aug-13 20:30N 54°32' E 018°32'0 0.0
2014-Aug-13 19:33N 54°32' E 018°32'0 0.0
2014-Aug-13 18:32N 54°32' E 018°32'0 0.0
2014-Aug-13 17:32N 54°32' E 018°32'0 0.0
2014-Aug-13 16:31N 54°32' E 018°32'0 0.0
2014-Aug-13 15:33N 54°32' E 018°32'0 0.0
2014-Aug-13 14:33N 54°32' E 018°32'0 0.0
2014-Aug-13 13:32N 54°32' E 018°32'0 0.0
2014-Aug-13 12:32N 54°32' E 018°32'0 0.0
2014-Aug-13 11:31N 54°32' E 018°32'0 0.0
2014-Aug-13 10:30N 54°32' E 018°32'0 0.0
2014-Aug-13 09:33N 54°32' E 018°32'0 0.0
2014-Aug-13 08:32N 54°32' E 018°32'0 0.0
2014-Aug-13 07:33N 54°32' E 018°32'0 0.0
2014-Aug-13 06:31N 54°32' E 018°32'0 0.0
2014-Aug-13 05:32N 54°32' E 018°32'0 0.0
2014-Aug-13 04:31N 54°32' E 018°32'  

Dump ship's entire track history